Time;durP1;ratioP1;P1;durP2;ratioP2;P2;SDS_P1;SDS_P2;PMS_P1;PMS_P2;Temp;Humidity;BMP_temperature;BMP_pressure;BME280_temperature;BME280_humidity;BME280_pressure;Samples;Min_cycle;Max_cycle;Signal;HPM_P1;HPM_P2
2023/06/29 00:00:14;;;;;;;4.90;4.40;;;24.60;56.90;25.40;100859.00;;;;4995399;28;20176;-55
2023/06/29 00:02:41;;;;;;;5.28;4.68;;;24.50;57.00;25.40;100846.00;;;;4992695;28;20179;-55
2023/06/29 00:05:08;;;;;;;5.00;4.50;;;24.50;57.00;25.40;100857.00;;;;4993301;28;20721;-55
2023/06/29 00:07:34;;;;;;;5.93;4.50;;;24.50;57.20;25.40;100851.00;;;;4996934;28;20195;-55
2023/06/29 00:10:00;;;;;;;5.95;4.82;;;24.50;57.30;25.40;100853.00;;;;4995001;28;20196;-55
2023/06/29 00:12:27;;;;;;;5.43;4.50;;;24.50;57.40;25.40;100855.00;;;;4991988;28;20165;-55
2023/06/29 00:14:53;;;;;;;4.80;4.40;;;24.50;57.50;25.40;100859.00;;;;4991512;28;20235;-56
2023/06/29 00:17:19;;;;;;;5.15;4.60;;;24.50;57.50;25.30;100848.00;;;;4991922;28;20660;-55
2023/06/29 00:19:47;;;;;;;5.00;4.50;;;24.50;57.50;25.30;100844.00;;;;4991639;28;20184;-55
2023/06/29 00:22:13;;;;;;;5.00;4.50;;;24.50;57.50;25.30;100850.00;;;;4991790;28;20175;-55
2023/06/29 00:24:42;;;;;;;6.03;4.38;;;24.50;57.50;25.30;100843.00;;;;4991275;28;20211;-54
2023/06/29 00:27:17;;;;;;;4.95;4.45;;;24.50;57.50;25.30;100846.00;;;;4991745;28;20244;-56
2023/06/29 00:29:43;;;;;;;6.03;4.70;;;24.40;57.50;25.30;100836.00;;;;4991437;28;20606;-55
2023/06/29 00:32:10;;;;;;;4.65;4.25;;;24.50;57.60;25.30;100845.00;;;;4991843;28;20204;-56
2023/06/29 00:34:35;;;;;;;5.35;4.60;;;24.40;57.60;25.30;100838.00;;;;4991669;28;20295;-55
2023/06/29 00:37:01;;;;;;;5.85;4.75;;;24.40;57.70;25.30;100828.00;;;;4991786;28;20179;-55
2023/06/29 00:39:27;;;;;;;5.43;4.90;;;24.40;57.80;25.30;100831.00;;;;4991638;28;20589;-55
2023/06/29 00:41:53;;;;;;;5.03;4.53;;;24.40;57.50;25.30;100820.00;;;;4974149;28;20218;-55
2023/06/29 00:44:19;;;;;;;6.15;4.65;;;24.40;57.90;25.30;100818.00;;;;4991351;28;20222;-55
2023/06/29 00:46:45;;;;;;;5.35;4.60;;;24.40;57.20;25.30;100824.00;;;;4991458;28;20603;-55
2023/06/29 00:49:12;;;;;;;5.25;4.72;;;24.40;57.10;25.20;100821.00;;;;4990190;28;20664;-55
2023/06/29 00:51:37;;;;;;;4.95;4.45;;;24.40;57.10;25.20;100817.00;;;;4989747;28;20184;-55
2023/06/29 00:54:03;;;;;;;5.53;4.82;;;24.40;57.30;25.20;100823.00;;;;4991107;28;20175;-55
2023/06/29 00:56:30;;;;;;;6.13;5.05;;;24.40;57.60;25.20;100819.00;;;;4989889;28;20196;-54
2023/06/29 00:58:56;;;;;;;5.93;4.82;;;24.40;57.80;25.20;100827.00;;;;4989800;28;20263;-54
2023/06/29 01:01:22;;;;;;;6.13;4.82;;;24.30;57.90;25.20;100821.00;;;;4990147;28;20292;-55
2023/06/29 01:03:48;;;;;;;5.60;4.72;;;24.40;58.20;25.10;100816.00;;;;4990753;28;20757;-55
2023/06/29 01:06:17;;;;;;;5.47;4.78;;;24.40;58.20;25.10;100817.00;;;;4989581;28;20189;-54
2023/06/29 01:08:46;;;;;;;5.77;4.70;;;24.30;58.10;25.10;100814.00;;;;4989364;28;20647;-55
2023/06/29 01:11:12;;;;;;;5.60;4.80;;;24.30;58.10;25.10;100825.00;;;;4989733;28;20211;-55
2023/06/29 01:13:38;;;;;;;5.43;4.70;;;24.30;58.10;25.10;100820.00;;;;4989261;28;20188;-54
2023/06/29 01:16:04;;;;;;;7.38;4.70;;;24.30;58.10;25.10;100820.00;;;;4972820;28;20196;-54
2023/06/29 01:18:30;;;;;;;5.05;4.55;;;24.30;58.20;25.10;100811.00;;;;4989467;28;20176;-55
2023/06/29 01:20:57;;;;;;;7.00;4.40;;;24.30;58.90;25.10;100816.00;;;;4989152;28;20168;-55
2023/06/29 01:23:27;;;;;;;5.10;4.40;;;24.30;58.40;25.10;100810.00;;;;4989136;28;20183;-54
2023/06/29 01:25:54;;;;;;;5.90;4.63;;;24.30;58.30;25.10;100819.00;;;;4989242;28;20274;-55
2023/06/29 01:28:20;;;;;;;5.05;4.57;;;24.20;58.30;25.10;100820.00;;;;4989350;28;20180;-56
2023/06/29 01:30:49;;;;;;;5.07;4.57;;;24.20;58.30;25.10;100812.00;;;;4990311;28;20854;-55
2023/06/29 01:33:21;;;;;;;5.22;4.72;;;24.30;58.30;25.10;100746.00;;;;4990553;28;20173;-54
2023/06/29 01:35:47;;;;;;;5.32;4.80;;;24.30;58.10;25.00;100814.00;;;;4972879;28;20207;-54
2023/06/29 01:38:21;;;;;;;5.47;4.97;;;24.20;58.00;25.00;100809.00;;;;4989361;28;20161;-55
2023/06/29 01:40:47;;;;;;;5.70;4.70;;;24.30;57.90;25.00;100803.00;;;;4972683;28;20661;-55
2023/06/29 01:43:13;;;;;;;5.75;4.47;;;24.20;57.50;25.00;100781.00;;;;4989027;28;20234;-57
2023/06/29 01:45:39;;;;;;;5.95;5.22;;;24.20;57.20;25.00;100797.00;;;;4997088;28;20207;-55
2023/06/29 01:48:05;;;;;;;5.57;4.75;;;24.20;57.00;25.00;100797.00;;;;4991188;28;20243;-54
2023/06/29 01:50:31;;;;;;;5.37;4.87;;;24.20;56.90;25.00;100734.00;;;;4973030;28;20218;-55
2023/06/29 01:52:56;;;;;;;5.82;5.18;;;24.10;56.70;25.00;100794.00;;;;4989174;28;20188;-56
2023/06/29 01:55:24;;;;;;;5.38;4.80;;;24.10;56.60;24.90;100787.00;;;;4989176;28;20219;-55
2023/06/29 01:57:49;;;;;;;7.50;4.78;;;24.10;56.60;24.90;100791.00;;;;4990001;28;20234;-55
2023/06/29 02:00:15;;;;;;;6.60;4.57;;;24.10;56.50;24.90;100790.00;;;;4999074;28;20555;-55
2023/06/29 02:02:42;;;;;;;5.30;4.80;;;24.10;56.50;24.90;100784.00;;;;4994773;28;20263;-54
2023/06/29 02:05:08;;;;;;;5.35;4.85;;;24.10;56.40;24.90;100775.00;;;;4989625;28;20742;-55
2023/06/29 02:07:33;;;;;;;6.47;5.10;;;24.10;56.40;24.90;100776.00;;;;4994445;28;20530;-55
2023/06/29 02:09:59;;;;;;;5.45;4.88;;;24.10;56.40;24.90;100776.00;;;;4993614;28;20197;-54
2023/06/29 02:12:25;;;;;;;6.00;5.43;;;24.10;56.30;24.90;100784.00;;;;5009349;28;20179;-55
2023/06/29 02:14:51;;;;;;;7.60;5.40;;;24.10;56.30;24.90;100792.00;;;;5009413;28;20180;-55
2023/06/29 02:17:17;;;;;;;5.88;5.30;;;24.10;56.30;24.90;100782.00;;;;5014019;28;20260;-55
2023/06/29 02:19:42;;;;;;;6.72;5.15;;;24.10;56.40;24.80;100781.00;;;;5001266;28;20183;-55
2023/06/29 02:22:09;;;;;;;5.07;4.60;;;24.10;56.50;24.80;100784.00;;;;5009556;28;20171;-54
2023/06/29 02:24:34;;;;;;;7.80;5.10;;;24.10;56.60;24.80;100772.00;;;;5006179;28;20195;-55
2023/06/29 02:27:01;;;;;;;5.32;4.82;;;24.00;56.50;24.80;100774.00;;;;4999507;28;20543;-55
2023/06/29 02:29:27;;;;;;;5.00;4.50;;;24.00;56.60;24.80;100766.00;;;;5009141;28;20251;-55
2023/06/29 02:31:52;;;;;;;6.20;5.03;;;24.00;56.80;24.80;100773.00;;;;5009411;28;20206;-55
2023/06/29 02:34:18;;;;;;;6.23;5.20;;;24.00;56.70;24.80;100773.00;;;;5008835;28;20168;-55
2023/06/29 02:36:44;;;;;;;5.15;4.57;;;23.90;56.60;24.60;100764.00;;;;5008988;28;20227;-55
2023/06/29 02:39:10;;;;;;;5.63;4.90;;;24.00;56.60;24.70;100756.00;;;;5009041;28;20651;-55
2023/06/29 02:41:35;;;;;;;6.20;5.03;;;24.00;56.40;24.70;100753.00;;;;5008808;28;20176;-55
2023/06/29 02:44:01;;;;;;;6.20;5.03;;;23.90;56.40;24.70;100754.00;;;;5008698;28;20657;-54
2023/06/29 02:46:27;;;;;;;5.27;4.60;;;23.90;56.30;24.70;100761.00;;;;5008926;28;20195;-54
2023/06/29 02:48:52;;;;;;;5.47;4.70;;;24.00;56.40;24.70;100748.00;;;;5008600;28;20187;-55
2023/06/29 02:51:18;;;;;;;5.57;4.47;;;24.00;56.30;24.70;100754.00;;;;5008710;28;20168;-55
2023/06/29 02:53:44;;;;;;;5.47;4.70;;;23.90;56.40;24.70;100750.00;;;;5008470;28;20175;-54
2023/06/29 02:56:09;;;;;;;4.90;4.43;;;23.90;56.40;24.60;100755.00;;;;5008454;28;20188;-54
2023/06/29 02:58:35;;;;;;;5.70;5.10;;;23.90;56.40;24.60;100751.00;;;;5008654;28;20595;-55
2023/06/29 03:01:01;;;;;;;5.73;5.13;;;23.90;56.30;24.60;100714.00;;;;5009009;28;20175;-54
2023/06/29 03:03:27;;;;;;;5.70;5.03;;;23.90;56.40;24.60;100756.00;;;;5009532;28;20175;-55
2023/06/29 03:05:52;;;;;;;5.93;5.07;;;23.90;56.50;24.60;100757.00;;;;5009695;28;20192;-55
2023/06/29 03:08:18;;;;;;;5.20;4.70;;;23.90;56.50;24.60;100763.00;;;;5002095;28;20179;-54
2023/06/29 03:10:44;;;;;;;5.90;5.30;;;23.90;56.80;24.60;100768.00;;;;5001638;28;20207;-55
2023/06/29 03:13:10;;;;;;;5.30;4.80;;;23.90;57.00;24.60;100762.00;;;;5009613;28;20222;-56
2023/06/29 03:15:35;;;;;;;5.33;4.67;;;23.80;57.10;24.60;100773.00;;;;5009786;28;20225;-55
2023/06/29 03:18:01;;;;;;;5.00;4.57;;;23.80;57.20;24.60;100763.00;;;;5009673;28;20597;-54
2023/06/29 03:20:27;;;;;;;4.87;4.47;;;23.80;58.00;24.60;100757.00;;;;5009658;28;20203;-55
2023/06/29 03:22:53;;;;;;;5.43;4.63;;;23.80;57.50;24.60;100760.00;;;;5009450;28;20214;-55
2023/06/29 03:25:18;;;;;;;5.20;4.70;;;23.80;57.50;24.50;100753.00;;;;5011008;28;20306;-55
2023/06/29 03:27:44;;;;;;;6.37;4.70;;;23.80;57.50;24.50;100756.00;;;;5016371;28;20191;-56
2023/06/29 03:30:10;;;;;;;5.50;4.70;;;23.80;57.50;24.50;100747.00;;;;5016744;28;20214;-54
2023/06/29 03:32:36;;;;;;;5.20;4.70;;;23.80;57.50;24.50;100749.00;;;;4980414;28;20183;-55
2023/06/29 03:35:03;;;;;;;5.23;4.73;;;23.80;57.30;24.50;100741.00;;;;5013327;28;20183;-55
2023/06/29 03:37:29;;;;;;;5.80;4.70;;;23.80;57.40;24.50;100742.00;;;;5013560;28;20665;-55
2023/06/29 03:39:55;;;;;;;5.80;4.93;;;23.80;57.20;24.50;100746.00;;;;5013078;28;20176;-56
2023/06/29 03:42:20;;;;;;;4.97;4.53;;;23.80;57.20;24.50;100748.00;;;;5013423;28;20175;-55
2023/06/29 03:44:46;;;;;;;6.70;4.90;;;23.80;57.30;24.50;100750.00;;;;5012842;28;20669;-61
2023/06/29 03:47:12;;;;;;;5.13;4.67;;;23.80;57.30;24.50;100750.00;;;;5013229;28;20171;-55
2023/06/29 03:49:38;;;;;;;5.90;5.30;;;23.80;57.20;24.50;100738.00;;;;5021620;28;20271;-54
2023/06/29 03:52:04;;;;;;;5.90;5.30;;;23.80;57.30;24.50;100738.00;;;;5018189;28;20670;-55
2023/06/29 03:54:30;;;;;;;5.50;5.00;;;23.80;57.20;24.50;100740.00;;;;5014530;28;20191;-54
2023/06/29 03:56:55;;;;;;;7.37;5.67;;;23.80;57.30;24.50;100734.00;;;;5014108;28;20172;-54
2023/06/29 03:59:21;;;;;;;5.50;5.00;;;23.80;57.20;24.50;100730.00;;;;5015142;28;20171;-55
2023/06/29 04:01:47;;;;;;;5.60;5.10;;;23.80;57.20;24.50;100727.00;;;;5013279;28;20179;-54
2023/06/29 04:04:13;;;;;;;5.77;5.13;;;23.80;57.30;24.50;100730.00;;;;5024757;28;20172;-56
2023/06/29 04:06:39;;;;;;;6.07;5.47;;;23.70;57.20;24.40;100730.00;;;;5018138;28;20293;-55
2023/06/29 04:09:04;;;;;;;5.67;5.17;;;23.80;57.30;24.40;100719.00;;;;5012595;28;20171;-55
2023/06/29 04:11:30;;;;;;;6.17;5.57;;;23.70;57.20;24.20;100719.00;;;;5012728;28;20672;-55
2023/06/29 04:13:56;;;;;;;6.30;5.53;;;23.70;57.20;24.40;100723.00;;;;5012286;28;20175;-56
2023/06/29 04:16:22;;;;;;;7.70;5.67;;;23.70;57.30;24.40;100736.00;;;;5012666;28;20187;-54
2023/06/29 04:18:47;;;;;;;6.23;5.50;;;23.80;57.70;24.40;100728.00;;;;5007796;28;20427;-56
2023/06/29 04:21:13;;;;;;;6.83;5.47;;;23.70;57.80;24.40;100726.00;;;;5011907;28;20179;-55
2023/06/29 04:23:39;;;;;;;7.17;5.27;;;23.70;57.90;24.40;100713.00;;;;5011534;28;20183;-55
2023/06/29 04:26:05;;;;;;;6.27;5.20;;;23.70;57.80;24.40;100720.00;;;;5012120;28;20724;-54
2023/06/29 04:28:34;;;;;;;5.73;5.23;;;23.70;57.80;24.40;100710.00;;;;5011184;28;20304;-54
2023/06/29 04:31:00;;;;;;;7.13;5.50;;;23.60;57.80;24.40;100713.00;;;;5010068;28;20220;-55
2023/06/29 04:33:25;;;;;;;6.33;5.73;;;23.70;58.00;24.40;100714.00;;;;5011266;28;20175;-55
2023/06/29 04:35:52;;;;;;;6.10;5.50;;;23.70;58.40;24.30;100710.00;;;;5010630;28;20305;-55
2023/06/29 04:38:17;;;;;;;5.77;5.17;;;23.70;58.30;24.30;100720.00;;;;5011255;28;20175;-54
2023/06/29 04:40:43;;;;;;;5.63;5.10;;;23.60;58.50;24.30;100710.00;;;;5010524;28;20184;-54
2023/06/29 04:43:09;;;;;;;6.43;5.23;;;23.70;58.60;24.30;100725.00;;;;5010456;28;20175;-55
2023/06/29 04:45:35;;;;;;;5.37;4.97;;;23.60;58.10;24.30;100716.00;;;;5005904;28;20200;-55
2023/06/29 04:48:01;;;;;;;5.70;5.10;;;23.70;58.40;23.90;100712.00;;;;5018149;28;20464;-54
2023/06/29 04:50:30;;;;;;;5.80;5.10;;;23.70;58.30;24.30;100711.00;;;;4994145;28;20199;-55
2023/06/29 04:52:58;;;;;;;5.57;5.03;;;23.70;58.20;24.30;100702.00;;;;4995644;28;20241;-54
2023/06/29 04:55:24;;;;;;;5.37;4.90;;;23.70;58.20;24.30;100705.00;;;;5009601;28;20234;-55
2023/06/29 04:57:50;;;;;;;5.63;5.13;;;23.60;58.10;24.30;100713.00;;;;5011004;28;20186;-55
2023/06/29 05:00:16;;;;;;;5.70;5.10;;;23.70;58.20;24.30;100697.00;;;;5010933;28;20179;-55
2023/06/29 05:02:42;;;;;;;6.27;5.57;;;23.60;58.50;24.30;100709.00;;;;5011000;28;20180;-54
2023/06/29 05:05:08;;;;;;;6.03;5.20;;;23.60;58.80;24.30;100717.00;;;;5010293;28;20753;-54
2023/06/29 05:07:34;;;;;;;5.80;5.30;;;23.60;58.90;24.30;100705.00;;;;5010963;28;20186;-54
2023/06/29 05:10:00;;;;;;;5.33;4.83;;;23.60;58.80;24.30;100704.00;;;;5010240;28;20629;-54
2023/06/29 05:12:26;;;;;;;5.23;4.73;;;23.60;58.50;24.30;100701.00;;;;5010863;28;20178;-54
2023/06/29 05:14:52;;;;;;;5.33;4.83;;;23.60;58.60;24.30;100702.00;;;;5010125;28;20187;-54
2023/06/29 05:17:18;;;;;;;5.63;5.07;;;23.60;58.90;24.30;100698.00;;;;5010270;28;20266;-55
2023/06/29 05:19:44;;;;;;;6.27;4.90;;;23.60;59.10;24.30;100703.00;;;;5010269;28;20175;-56
2023/06/29 05:22:11;;;;;;;6.03;5.27;;;23.60;59.10;24.30;100718.00;;;;5010855;28;20175;-55
2023/06/29 05:24:37;;;;;;;5.80;5.20;;;23.60;59.60;24.30;100701.00;;;;5010796;28;20588;-54
2023/06/29 05:27:04;;;;;;;5.33;4.50;;;23.60;59.40;24.30;100714.00;;;;5010434;28;20642;-55
2023/06/29 05:29:29;;;;;;;5.50;5.00;;;23.60;58.90;24.20;100709.00;;;;5009575;28;20373;-55
2023/06/29 05:31:55;;;;;;;5.70;5.10;;;23.60;58.90;24.20;100706.00;;;;5010666;28;20263;-55
2023/06/29 05:34:21;;;;;;;5.20;4.70;;;23.60;58.90;24.20;100697.00;;;;5009825;28;20218;-55
2023/06/29 05:36:46;;;;;;;5.43;4.60;;;23.60;58.90;24.20;100695.00;;;;5010322;28;20255;-54
2023/06/29 05:39:12;;;;;;;5.53;4.73;;;23.60;58.70;24.20;100703.00;;;;5008451;28;20172;-54
2023/06/29 05:41:38;;;;;;;5.17;4.63;;;23.60;58.60;24.20;100696.00;;;;5010396;28;20174;-54
2023/06/29 05:44:06;;;;;;;5.20;4.70;;;23.60;59.10;24.20;100700.00;;;;5008648;28;20171;-54
2023/06/29 05:46:33;;;;;;;5.33;4.80;;;23.60;59.20;24.20;100701.00;;;;5010177;28;20658;-55
2023/06/29 05:49:00;;;;;;;5.00;4.50;;;23.60;59.20;24.20;100699.00;;;;5009018;28;20176;-54
2023/06/29 05:51:26;;;;;;;4.80;4.40;;;23.60;59.30;24.20;100698.00;;;;5016769;28;20592;-55
2023/06/29 05:53:52;;;;;;;6.30;4.47;;;23.50;59.10;24.20;100691.00;;;;5013922;28;20172;-54
2023/06/29 05:56:18;;;;;;;4.60;4.10;;;23.60;59.20;24.20;100692.00;;;;5009062;28;20196;-54
2023/06/29 05:58:43;;;;;;;4.60;4.20;;;23.50;59.30;24.20;100698.00;;;;5009266;28;20176;-55
2023/06/29 06:01:09;;;;;;;4.50;4.10;;;23.50;59.30;24.20;100693.00;;;;5010002;28;20171;-54
2023/06/29 06:03:35;;;;;;;4.53;4.13;;;23.50;59.20;24.10;100693.00;;;;5009530;28;20182;-54
2023/06/29 06:06:02;;;;;;;6.13;4.37;;;23.50;59.20;24.10;100695.00;;;;5015867;28;20235;-54
2023/06/29 06:08:27;;;;;;;4.77;4.20;;;23.50;59.20;24.10;100692.00;;;;5014272;28;20270;-55
2023/06/29 06:10:53;;;;;;;5.03;4.10;;;23.50;59.20;24.10;100695.00;;;;4999394;28;20350;-55
2023/06/29 06:13:19;;;;;;;4.70;4.27;;;23.50;59.10;24.10;100692.00;;;;4996759;28;20177;-56
2023/06/29 06:15:45;;;;;;;5.97;4.50;;;23.50;59.20;24.10;100694.00;;;;4989153;28;20200;-54
2023/06/29 06:18:11;;;;;;;4.93;4.20;;;23.50;59.30;24.10;100696.00;;;;4989853;28;20191;-55
2023/06/29 06:20:36;;;;;;;4.40;4.00;;;23.50;59.60;24.10;100691.00;;;;4996723;28;20179;-54
2023/06/29 06:23:02;;;;;;;4.23;3.60;;;23.50;59.30;24.10;100692.00;;;;5009345;28;20176;-55
2023/06/29 06:25:28;;;;;;;6.57;4.00;;;23.50;59.40;24.10;100682.00;;;;5009399;28;20701;-55
2023/06/29 06:27:53;;;;;;;4.87;3.90;;;23.50;59.50;24.10;100692.00;;;;5009570;28;20191;-55
2023/06/29 06:30:20;;;;;;;4.80;4.07;;;23.50;59.40;24.10;100687.00;;;;5009474;28;20203;-54
2023/06/29 06:32:46;;;;;;;4.67;4.27;;;23.50;59.60;24.10;100694.00;;;;5002638;28;20176;-55
2023/06/29 06:35:12;;;;;;;4.70;4.30;;;23.50;59.40;24.10;100687.00;;;;4988180;28;20218;-55
2023/06/29 06:37:38;;;;;;;4.53;4.13;;;23.50;59.60;24.10;100690.00;;;;4990226;28;20195;-55
2023/06/29 06:40:07;;;;;;;5.03;4.00;;;23.50;59.60;24.10;100691.00;;;;4988759;28;20176;-56
2023/06/29 06:42:37;;;;;;;4.60;4.17;;;23.50;59.50;24.10;100697.00;;;;4988624;28;20217;-54
2023/06/29 06:45:04;;;;;;;5.70;4.20;;;23.40;59.90;24.10;100693.00;;;;4991454;28;20200;-55
2023/06/29 06:47:33;;;;;;;4.80;3.93;;;23.50;59.60;24.10;100694.00;;;;4994230;28;20682;-56
2023/06/29 06:49:59;;;;;;;5.03;4.23;;;23.50;59.60;24.00;100690.00;;;;4990747;28;20204;-55
2023/06/29 06:52:25;;;;;;;4.90;4.40;;;23.50;59.80;24.00;100694.00;;;;4989380;28;20184;-55
2023/06/29 06:54:51;;;;;;;5.00;3.80;;;23.40;59.80;24.00;100695.00;;;;4987466;28;20200;-55
2023/06/29 06:57:18;;;;;;;4.47;4.07;;;23.50;59.90;24.00;100697.00;;;;4989624;28;20239;-56
2023/06/29 06:59:43;;;;;;;4.53;4.13;;;23.40;60.20;24.00;100695.00;;;;4988716;28;20284;-55
2023/06/29 07:02:09;;;;;;;4.40;4.00;;;23.40;59.80;24.00;100696.00;;;;4989231;28;20176;-55
2023/06/29 07:04:35;;;;;;;5.57;4.20;;;23.40;59.70;24.00;100694.00;;;;4980930;28;20184;-55
2023/06/29 07:07:01;;;;;;;4.40;3.77;;;23.40;59.70;24.00;100685.00;;;;4989520;28;20188;-55
2023/06/29 07:09:27;;;;;;;4.90;3.97;;;23.40;59.80;24.00;100689.00;;;;4998193;28;20290;-55
2023/06/29 07:11:52;;;;;;;4.10;3.70;;;23.40;59.80;24.00;100692.00;;;;5009284;28;20254;-55
2023/06/29 07:14:18;;;;;;;4.70;4.20;;;23.40;60.00;24.00;100691.00;;;;5008439;28;20615;-56
2023/06/29 07:16:44;;;;;;;4.80;4.30;;;23.40;60.30;24.00;100691.00;;;;5009026;28;20724;-55
2023/06/29 07:19:14;;;;;;;4.63;4.10;;;23.40;60.10;24.00;100697.00;;;;5009024;28;20178;-55
2023/06/29 07:21:39;;;;;;;4.20;3.90;;;23.40;60.10;24.00;100694.00;;;;5009232;28;20274;-55
2023/06/29 07:24:06;;;;;;;4.53;3.90;;;23.40;60.30;24.00;100690.00;;;;4990909;28;20832;-55
2023/06/29 07:26:31;;;;;;;4.40;4.00;;;23.40;60.50;24.00;100685.00;;;;5009100;28;20693;-54
2023/06/29 07:28:57;;;;;;;5.60;3.80;;;23.40;60.30;24.10;100689.00;;;;5008725;28;20191;-55
2023/06/29 07:31:26;;;;;;;4.40;3.93;;;23.40;60.20;24.10;100692.00;;;;5009216;28;20243;-55
2023/06/29 07:33:53;;;;;;;4.37;3.90;;;23.40;60.70;24.00;100687.00;;;;5008156;28;20186;-55
2023/06/29 07:36:24;;;;;;;4.70;4.23;;;23.40;61.50;24.00;100683.00;;;;5008719;28;20318;-55
2023/06/29 07:38:50;;;;;;;4.33;3.90;;;23.40;60.40;24.00;100680.00;;;;5008827;28;20263;-55
2023/06/29 07:41:16;;;;;;;4.53;4.13;;;23.40;60.40;24.10;100687.00;;;;5009009;28;20176;-55
2023/06/29 07:43:46;;;;;;;6.13;4.70;;;23.40;60.70;24.00;100687.00;;;;5007663;28;20180;-55
2023/06/29 07:46:12;;;;;;;5.30;4.43;;;23.40;60.80;24.00;100682.00;;;;5008991;28;20627;-54
2023/06/29 07:48:38;;;;;;;4.70;4.17;;;23.40;60.50;24.00;100683.00;;;;5008651;28;20211;-55
2023/06/29 07:51:03;;;;;;;5.40;4.13;;;23.40;60.70;24.00;100682.00;;;;5008921;28;20231;-56
2023/06/29 07:53:30;;;;;;;5.80;4.30;;;23.40;61.20;24.00;100693.00;;;;5014094;28;20163;-56
2023/06/29 07:55:56;;;;;;;4.10;3.70;;;23.40;61.00;24.00;100680.00;;;;5015557;28;20196;-55
2023/06/29 07:58:22;;;;;;;5.13;3.90;;;23.40;61.10;24.00;100680.00;;;;5008552;28;20241;-55
2023/06/29 08:00:47;;;;;;;4.10;3.70;;;23.40;60.90;24.10;100680.00;;;;5008469;28;20315;-56
2023/06/29 08:03:13;;;;;;;4.80;4.17;;;23.40;60.90;24.10;100683.00;;;;5007989;28;20179;-56
2023/06/29 08:05:39;;;;;;;5.93;4.17;;;23.50;62.20;24.10;100681.00;;;;5008239;28;20199;-55
2023/06/29 08:08:05;;;;;;;5.60;4.33;;;23.50;60.80;24.10;100678.00;;;;5013034;28;20191;-56
2023/06/29 08:10:31;;;;;;;5.60;4.27;;;23.40;60.80;24.10;100678.00;;;;5001874;28;20666;-55
2023/06/29 08:12:56;;;;;;;4.70;4.00;;;23.50;62.10;24.10;100673.00;;;;4992338;28;20259;-55
2023/06/29 08:15:22;;;;;;;7.53;4.03;;;23.50;61.00;24.20;100682.00;;;;4974754;28;20264;-55
2023/06/29 08:17:48;;;;;;;4.77;3.97;;;23.50;61.20;24.20;100684.00;;;;4992621;28;20255;-55
2023/06/29 08:20:14;;;;;;;4.70;4.10;;;23.50;61.20;24.20;100681.00;;;;4992556;28;20203;-55
2023/06/29 08:22:40;;;;;;;5.07;4.13;;;23.50;60.90;24.20;100672.00;;;;4992161;28;20176;-55
2023/06/29 08:25:06;;;;;;;6.50;3.93;;;23.50;60.60;24.20;100675.00;;;;4991766;28;20193;-55
2023/06/29 08:27:32;;;;;;;6.27;4.10;;;23.50;60.50;24.20;100679.00;;;;4990937;28;20210;-54
2023/06/29 08:29:58;;;;;;;5.93;3.90;;;23.50;61.10;24.20;100672.00;;;;4991018;28;20577;-55
2023/06/29 08:32:24;;;;;;;4.30;3.90;;;23.50;60.70;24.20;100676.00;;;;4991854;28;20646;-55
2023/06/29 08:34:50;;;;;;;5.83;4.00;;;23.60;60.60;24.20;100675.00;;;;4991288;28;20557;-54
2023/06/29 08:37:15;;;;;;;6.40;4.00;;;23.50;60.90;24.30;100672.00;;;;4991478;28;20173;-47
2023/06/29 08:39:41;;;;;;;6.73;3.83;;;23.60;61.20;24.30;100669.00;;;;4990927;28;20187;-48
2023/06/29 08:42:07;;;;;;;6.63;4.50;;;23.60;60.90;24.30;100668.00;;;;4991725;28;20184;-48
2023/06/29 08:44:35;;;;;;;4.77;4.20;;;23.60;60.90;24.30;100673.00;;;;5006163;28;20208;-47
2023/06/29 08:47:02;;;;;;;6.17;4.40;;;23.60;60.90;24.30;100667.00;;;;4991851;28;20192;-49
2023/06/29 08:49:28;;;;;;;19.77;5.70;;;23.60;60.90;24.30;100664.00;;;;4991794;28;20247;-46
2023/06/29 08:51:58;;;;;;;5.27;4.70;;;23.60;63.80;24.40;100671.00;;;;4990996;28;20169;-51
2023/06/29 08:54:26;;;;;;;7.40;4.83;;;23.60;62.30;24.30;100656.00;;;;5006460;28;20183;-50
2023/06/29 08:56:51;;;;;;;9.67;4.77;;;23.50;62.70;24.30;100657.00;;;;4992946;28;20180;-50
2023/06/29 08:59:18;;;;;;;5.33;4.83;;;23.50;62.80;24.30;100666.00;;;;4991087;28;20722;-51
2023/06/29 09:01:43;;;;;;;6.70;4.80;;;23.50;62.90;24.20;100656.00;;;;4990575;28;20176;-50
2023/06/29 09:04:09;;;;;;;7.03;4.77;;;23.40;62.80;24.00;100648.00;;;;4991166;28;20605;-50
2023/06/29 09:06:35;;;;;;;6.03;4.90;;;23.50;62.50;24.20;100666.00;;;;4990521;28;20185;-51
2023/06/29 09:09:01;;;;;;;5.87;5.17;;;23.50;62.50;24.20;100657.00;;;;4991500;28;20573;-51
2023/06/29 09:11:27;;;;;;;7.67;5.43;;;23.50;62.50;24.20;100659.00;;;;4994126;28;20204;-52
2023/06/29 09:13:53;;;;;;;5.23;4.73;;;23.60;62.30;24.20;100660.00;;;;5001009;28;20172;-51
2023/06/29 09:16:18;;;;;;;5.93;5.20;;;23.60;62.50;24.30;100658.00;;;;4990305;28;20193;-51
2023/06/29 09:18:49;;;;;;;7.93;5.10;;;23.60;62.60;24.30;100654.00;;;;4991466;28;20187;-51
2023/06/29 09:21:17;;;;;;;5.33;4.83;;;23.60;62.70;24.30;100654.00;;;;4992031;28;20184;-51
2023/06/29 09:23:45;;;;;;;8.63;5.30;;;23.60;62.40;24.30;100648.00;;;;4990618;28;20185;-52
2023/06/29 09:26:11;;;;;;;6.03;5.00;;;23.60;62.30;24.30;100655.00;;;;4991542;28;20192;-50
2023/06/29 09:28:37;;;;;;;6.53;5.03;;;23.60;62.30;24.30;100639.00;;;;4990177;28;20216;-52
2023/06/29 09:31:09;;;;;;;5.60;4.90;;;23.70;62.40;24.40;100647.00;;;;4973823;28;20208;-51
2023/06/29 09:33:35;;;;;;;7.07;4.87;;;23.60;62.10;24.40;100641.00;;;;4990932;28;20535;-51
2023/06/29 09:36:06;;;;;;;7.47;4.60;;;23.70;62.20;24.40;100635.00;;;;4990167;28;20300;-50
2023/06/29 09:38:32;;;;;;;5.87;4.80;;;23.70;62.20;24.40;100624.00;;;;4991133;28;20204;-51
2023/06/29 09:40:59;;;;;;;5.80;4.40;;;23.70;62.30;24.40;100627.00;;;;4991511;28;20926;-52
2023/06/29 09:43:29;;;;;;;5.67;4.40;;;23.70;62.10;24.40;100635.00;;;;4990509;28;20192;-51
2023/06/29 09:46:21;;;;;;;5.13;4.63;;;23.70;62.20;24.40;100615.00;;;;4992017;28;20688;-52
2023/06/29 09:48:48;;;;;;;6.20;4.83;;;23.70;62.20;24.40;100636.00;;;;4992083;28;20219;-52
2023/06/29 09:51:23;;;;;;;6.27;5.60;;;23.80;62.60;24.50;100626.00;;;;5009266;28;20211;-52
2023/06/29 09:53:48;;;;;;;6.20;5.60;;;23.80;62.60;24.50;100623.00;;;;5009568;28;20226;-50
2023/06/29 09:56:15;;;;;;;7.73;5.50;;;23.80;62.60;24.50;100633.00;;;;5010909;28;20286;-51
2023/06/29 09:58:41;;;;;;;7.57;4.90;;;23.90;62.50;24.50;100628.00;;;;5019861;28;20163;-51
2023/06/29 10:01:09;;;;;;;5.70;5.13;;;23.90;62.50;24.60;100619.00;;;;5029214;28;20175;-51
2023/06/29 10:03:35;;;;;;;6.03;5.07;;;23.90;62.60;24.60;100629.00;;;;5008704;28;20179;-52
2023/06/29 10:06:12;;;;;;;5.50;5.00;;;24.00;63.20;24.60;100626.00;;;;5011888;28;20198;-51
2023/06/29 10:08:42;;;;;;;5.53;5.03;;;24.00;62.30;24.70;100611.00;;;;5009841;28;20194;-52
2023/06/29 10:11:08;;;;;;;6.10;5.50;;;24.00;62.20;24.70;100617.00;;;;5001657;28;20406;-51
2023/06/29 10:13:40;;;;;;;5.33;4.83;;;24.00;62.00;24.70;100610.00;;;;4996484;28;20176;-51
2023/06/29 10:16:07;;;;;;;5.53;4.77;;;24.00;61.90;24.70;100619.00;;;;5009990;28;20204;-52
2023/06/29 10:18:34;;;;;;;6.23;5.00;;;24.10;62.80;24.80;100605.00;;;;4993572;28;20206;-53
2023/06/29 10:21:00;;;;;;;5.93;4.97;;;24.10;61.80;24.80;100622.00;;;;4993872;28;20175;-52
2023/06/29 10:23:26;;;;;;;5.20;4.70;;;24.10;61.80;24.80;100618.00;;;;4992103;28;20179;-51
2023/06/29 10:25:52;;;;;;;6.57;5.17;;;24.10;61.90;24.80;100613.00;;;;5009089;28;20191;-53
2023/06/29 10:28:18;;;;;;;5.43;4.93;;;24.20;61.70;24.90;100619.00;;;;5009206;28;20199;-52
2023/06/29 10:30:45;;;;;;;6.93;4.90;;;24.20;61.40;24.90;100619.00;;;;5008893;28;20266;-52
2023/06/29 10:33:11;;;;;;;5.60;4.97;;;24.20;61.60;24.90;100612.00;;;;5005313;28;20168;-51
2023/06/29 10:35:37;;;;;;;5.72;5.05;;;24.20;61.50;24.90;100608.00;;;;5008653;28;20203;-52
2023/06/29 10:38:10;;;;;;;6.03;5.03;;;24.20;61.30;25.00;100602.00;;;;4992554;28;20163;-51
2023/06/29 10:40:48;;;;;;;6.30;5.13;;;24.20;61.40;25.00;100609.00;;;;5010444;28;20167;-51
2023/06/29 10:43:14;;;;;;;5.68;5.03;;;24.30;61.30;25.00;100599.00;;;;5000398;28;20176;-51